sensor_id;sensor_type;location;lat;lon;timestamp;P1;durP1;ratioP1;P2;durP2;ratioP2
72649;SDS011;61467;50.674;4.618;2023-07-31T00:00:58;13.38;;;3.47;;
72649;SDS011;61467;50.674;4.618;2023-07-31T00:03:25;9.02;;;2.78;;
72649;SDS011;61467;50.674;4.618;2023-07-31T00:05:51;11.93;;;2.60;;
72649;SDS011;61467;50.674;4.618;2023-07-31T00:08:20;9.82;;;3.33;;
72649;SDS011;61467;50.674;4.618;2023-07-31T00:10:47;10.48;;;3.13;;
72649;SDS011;61467;50.674;4.618;2023-07-31T00:13:17;13.88;;;2.70;;
72649;SDS011;61467;50.674;4.618;2023-07-31T00:15:44;11.43;;;3.33;;
72649;SDS011;61467;50.674;4.618;2023-07-31T00:18:10;13.10;;;3.27;;
72649;SDS011;61467;50.674;4.618;2023-07-31T00:20:38;11.27;;;3.22;;
72649;SDS011;61467;50.674;4.618;2023-07-31T00:23:04;12.07;;;2.90;;
72649;SDS011;61467;50.674;4.618;2023-07-31T00:25:33;11.82;;;2.95;;
72649;SDS011;61467;50.674;4.618;2023-07-31T00:27:59;10.95;;;3.10;;
72649;SDS011;61467;50.674;4.618;2023-07-31T00:30:26;9.33;;;2.93;;
72649;SDS011;61467;50.674;4.618;2023-07-31T00:32:53;12.18;;;2.97;;
72649;SDS011;61467;50.674;4.618;2023-07-31T00:35:20;9.60;;;2.97;;
72649;SDS011;61467;50.674;4.618;2023-07-31T00:37:47;12.23;;;3.10;;
72649;SDS011;61467;50.674;4.618;2023-07-31T00:40:14;11.48;;;2.95;;
72649;SDS011;61467;50.674;4.618;2023-07-31T00:42:42;8.57;;;2.93;;
72649;SDS011;61467;50.674;4.618;2023-07-31T00:45:09;9.20;;;2.42;;
72649;SDS011;61467;50.674;4.618;2023-07-31T00:47:36;8.77;;;2.72;;
72649;SDS011;61467;50.674;4.618;2023-07-31T00:50:03;10.48;;;2.90;;
72649;SDS011;61467;50.674;4.618;2023-07-31T00:52:30;9.43;;;3.30;;
72649;SDS011;61467;50.674;4.618;2023-07-31T00:54:57;9.20;;;2.90;;
72649;SDS011;61467;50.674;4.618;2023-07-31T00:57:25;12.43;;;3.10;;
72649;SDS011;61467;50.674;4.618;2023-07-31T00:59:53;11.95;;;3.50;;
72649;SDS011;61467;50.674;4.618;2023-07-31T01:02:20;12.07;;;3.53;;
72649;SDS011;61467;50.674;4.618;2023-07-31T01:04:48;12.50;;;3.17;;
72649;SDS011;61467;50.674;4.618;2023-07-31T01:07:17;8.80;;;3.07;;
72649;SDS011;61467;50.674;4.618;2023-07-31T01:09:49;8.65;;;2.78;;
72649;SDS011;61467;50.674;4.618;2023-07-31T01:12:23;12.25;;;3.85;;
72649;SDS011;61467;50.674;4.618;2023-07-31T01:15:03;10.02;;;2.78;;
72649;SDS011;61467;50.674;4.618;2023-07-31T01:17:31;11.20;;;3.30;;
72649;SDS011;61467;50.674;4.618;2023-07-31T01:20:00;9.90;;;2.50;;
72649;SDS011;61467;50.674;4.618;2023-07-31T01:22:31;10.52;;;3.20;;
72649;SDS011;61467;50.674;4.618;2023-07-31T01:25:22;9.00;;;3.05;;
72649;SDS011;61467;50.674;4.618;2023-07-31T01:28:11;11.07;;;2.63;;
72649;SDS011;61467;50.674;4.618;2023-07-31T01:30:41;13.13;;;3.75;;
72649;SDS011;61467;50.674;4.618;2023-07-31T01:33:10;10.33;;;3.13;;
72649;SDS011;61467;50.674;4.618;2023-07-31T01:35:37;10.60;;;3.00;;
72649;SDS011;61467;50.674;4.618;2023-07-31T01:38:05;10.77;;;3.28;;
72649;SDS011;61467;50.674;4.618;2023-07-31T01:40:31;12.02;;;3.22;;
72649;SDS011;61467;50.674;4.618;2023-07-31T01:43:00;8.80;;;3.35;;
72649;SDS011;61467;50.674;4.618;2023-07-31T01:45:26;9.87;;;3.27;;
72649;SDS011;61467;50.674;4.618;2023-07-31T01:47:53;9.68;;;3.22;;
72649;SDS011;61467;50.674;4.618;2023-07-31T01:50:20;10.93;;;2.70;;
72649;SDS011;61467;50.674;4.618;2023-07-31T01:52:47;8.93;;;2.72;;
72649;SDS011;61467;50.674;4.618;2023-07-31T01:55:14;12.52;;;3.20;;
72649;SDS011;61467;50.674;4.618;2023-07-31T01:57:41;11.93;;;3.57;;
72649;SDS011;61467;50.674;4.618;2023-07-31T02:00:09;9.63;;;2.80;;
72649;SDS011;61467;50.674;4.618;2023-07-31T02:02:38;13.85;;;3.53;;
72649;SDS011;61467;50.674;4.618;2023-07-31T02:05:05;9.48;;;3.35;;
72649;SDS011;61467;50.674;4.618;2023-07-31T02:07:32;10.35;;;3.22;;
72649;SDS011;61467;50.674;4.618;2023-07-31T02:09:59;10.83;;;2.63;;
72649;SDS011;61467;50.674;4.618;2023-07-31T02:12:26;10.30;;;3.15;;
72649;SDS011;61467;50.674;4.618;2023-07-31T02:14:56;9.43;;;2.80;;
72649;SDS011;61467;50.674;4.618;2023-07-31T02:17:24;10.15;;;3.40;;
72649;SDS011;61467;50.674;4.618;2023-07-31T02:19:51;9.18;;;3.35;;
72649;SDS011;61467;50.674;4.618;2023-07-31T02:22:17;9.17;;;2.47;;
72649;SDS011;61467;50.674;4.618;2023-07-31T02:24:45;8.13;;;2.58;;
72649;SDS011;61467;50.674;4.618;2023-07-31T02:27:11;9.05;;;2.47;;
72649;SDS011;61467;50.674;4.618;2023-07-31T02:29:38;8.77;;;2.72;;
72649;SDS011;61467;50.674;4.618;2023-07-31T02:32:05;8.48;;;2.78;;
72649;SDS011;61467;50.674;4.618;2023-07-31T02:34:34;7.93;;;2.70;;
72649;SDS011;61467;50.674;4.618;2023-07-31T02:37:00;8.00;;;2.90;;
72649;SDS011;61467;50.674;4.618;2023-07-31T02:39:27;8.88;;;2.58;;
72649;SDS011;61467;50.674;4.618;2023-07-31T02:41:54;6.60;;;2.40;;
72649;SDS011;61467;50.674;4.618;2023-07-31T02:44:21;10.82;;;2.58;;
72649;SDS011;61467;50.674;4.618;2023-07-31T02:46:49;7.23;;;2.43;;
72649;SDS011;61467;50.674;4.618;2023-07-31T02:49:16;9.15;;;2.50;;
72649;SDS011;61467;50.674;4.618;2023-07-31T02:51:44;7.00;;;2.30;;
72649;SDS011;61467;50.674;4.618;2023-07-31T02:54:11;7.38;;;2.55;;
72649;SDS011;61467;50.674;4.618;2023-07-31T02:56:37;6.25;;;2.30;;
72649;SDS011;61467;50.674;4.618;2023-07-31T02:59:05;7.87;;;2.20;;
72649;SDS011;61467;50.674;4.618;2023-07-31T03:01:32;7.50;;;2.40;;
72649;SDS011;61467;50.674;4.618;2023-07-31T03:03:59;7.93;;;2.35;;
72649;SDS011;61467;50.674;4.618;2023-07-31T03:06:26;9.95;;;2.53;;
72649;SDS011;61467;50.674;4.618;2023-07-31T03:08:54;7.60;;;2.30;;
72649;SDS011;61467;50.674;4.618;2023-07-31T03:11:21;10.93;;;2.10;;
72649;SDS011;61467;50.674;4.618;2023-07-31T03:13:48;8.10;;;2.20;;
72649;SDS011;61467;50.674;4.618;2023-07-31T03:16:15;8.55;;;3.45;;
72649;SDS011;61467;50.674;4.618;2023-07-31T03:18:42;8.48;;;2.50;;
72649;SDS011;61467;50.674;4.618;2023-07-31T03:21:08;9.15;;;2.47;;
72649;SDS011;61467;50.674;4.618;2023-07-31T03:23:35;7.13;;;2.40;;
72649;SDS011;61467;50.674;4.618;2023-07-31T03:26:05;8.45;;;2.47;;
72649;SDS011;61467;50.674;4.618;2023-07-31T03:28:37;7.50;;;2.70;;
72649;SDS011;61467;50.674;4.618;2023-07-31T03:31:04;8.85;;;2.85;;
72649;SDS011;61467;50.674;4.618;2023-07-31T03:33:31;8.00;;;2.78;;
72649;SDS011;61467;50.674;4.618;2023-07-31T03:35:57;7.53;;;2.53;;
72649;SDS011;61467;50.674;4.618;2023-07-31T03:38:24;7.65;;;2.50;;
72649;SDS011;61467;50.674;4.618;2023-07-31T03:40:51;9.23;;;2.60;;
72649;SDS011;61467;50.674;4.618;2023-07-31T03:43:22;8.15;;;2.47;;
72649;SDS011;61467;50.674;4.618;2023-07-31T03:45:50;8.48;;;2.90;;
72649;SDS011;61467;50.674;4.618;2023-07-31T03:48:16;6.80;;;2.57;;
72649;SDS011;61467;50.674;4.618;2023-07-31T03:50:43;7.25;;;2.20;;
72649;SDS011;61467;50.674;4.618;2023-07-31T03:53:10;8.05;;;2.80;;
72649;SDS011;61467;50.674;4.618;2023-07-31T03:55:37;7.82;;;2.53;;
72649;SDS011;61467;50.674;4.618;2023-07-31T03:58:04;8.05;;;2.63;;
72649;SDS011;61467;50.674;4.618;2023-07-31T04:00:32;8.80;;;2.40;;
72649;SDS011;61467;50.674;4.618;2023-07-31T04:02:59;8.02;;;2.20;;
72649;SDS011;61467;50.674;4.618;2023-07-31T04:05:26;7.13;;;2.45;;
72649;SDS011;61467;50.674;4.618;2023-07-31T04:07:52;9.15;;;2.47;;
72649;SDS011;61467;50.674;4.618;2023-07-31T04:10:19;8.57;;;2.50;;
72649;SDS011;61467;50.674;4.618;2023-07-31T04:12:46;10.33;;;2.43;;
72649;SDS011;61467;50.674;4.618;2023-07-31T04:15:13;9.48;;;2.75;;
72649;SDS011;61467;50.674;4.618;2023-07-31T04:17:41;6.65;;;2.25;;
72649;SDS011;61467;50.674;4.618;2023-07-31T04:20:09;9.50;;;2.45;;
72649;SDS011;61467;50.674;4.618;2023-07-31T04:22:36;10.80;;;2.22;;
72649;SDS011;61467;50.674;4.618;2023-07-31T04:25:03;7.50;;;2.50;;
72649;SDS011;61467;50.674;4.618;2023-07-31T04:27:33;7.32;;;2.30;;
72649;SDS011;61467;50.674;4.618;2023-07-31T04:29:59;9.23;;;2.60;;
72649;SDS011;61467;50.674;4.618;2023-07-31T04:32:26;7.30;;;2.45;;
72649;SDS011;61467;50.674;4.618;2023-07-31T04:34:56;8.50;;;2.42;;
72649;SDS011;61467;50.674;4.618;2023-07-31T04:37:22;9.27;;;2.43;;
72649;SDS011;61467;50.674;4.618;2023-07-31T04:39:49;8.02;;;2.15;;
72649;SDS011;61467;50.674;4.618;2023-07-31T04:42:16;7.95;;;2.50;;
72649;SDS011;61467;50.674;4.618;2023-07-31T04:44:43;9.98;;;2.97;;
72649;SDS011;61467;50.674;4.618;2023-07-31T04:47:10;9.75;;;2.53;;
72649;SDS011;61467;50.674;4.618;2023-07-31T04:49:36;7.47;;;2.47;;
72649;SDS011;61467;50.674;4.618;2023-07-31T04:52:05;10.32;;;2.50;;
72649;SDS011;61467;50.674;4.618;2023-07-31T04:54:32;9.75;;;2.50;;
72649;SDS011;61467;50.674;4.618;2023-07-31T04:56:59;10.65;;;2.50;;
72649;SDS011;61467;50.674;4.618;2023-07-31T04:59:25;7.72;;;2.65;;
72649;SDS011;61467;50.674;4.618;2023-07-31T05:01:52;6.27;;;2.10;;
72649;SDS011;61467;50.674;4.618;2023-07-31T05:04:21;10.30;;;2.67;;
72649;SDS011;61467;50.674;4.618;2023-07-31T05:06:48;11.48;;;2.33;;
72649;SDS011;61467;50.674;4.618;2023-07-31T05:09:17;9.82;;;2.58;;
72649;SDS011;61467;50.674;4.618;2023-07-31T05:11:43;8.13;;;2.40;;
72649;SDS011;61467;50.674;4.618;2023-07-31T05:14:12;8.90;;;1.90;;
72649;SDS011;61467;50.674;4.618;2023-07-31T05:16:39;7.88;;;2.67;;
72649;SDS011;61467;50.674;4.618;2023-07-31T05:19:06;7.80;;;2.42;;
72649;SDS011;61467;50.674;4.618;2023-07-31T05:21:33;8.68;;;2.20;;
72649;SDS011;61467;50.674;4.618;2023-07-31T05:23:59;8.95;;;2.33;;
72649;SDS011;61467;50.674;4.618;2023-07-31T05:26:28;7.50;;;2.37;;
72649;SDS011;61467;50.674;4.618;2023-07-31T05:28:55;8.10;;;2.60;;
72649;SDS011;61467;50.674;4.618;2023-07-31T05:31:22;6.22;;;2.30;;
72649;SDS011;61467;50.674;4.618;2023-07-31T05:33:49;7.65;;;2.40;;
72649;SDS011;61467;50.674;4.618;2023-07-31T05:36:16;8.43;;;2.63;;
72649;SDS011;61467;50.674;4.618;2023-07-31T05:38:43;7.63;;;2.20;;
72649;SDS011;61467;50.674;4.618;2023-07-31T05:41:11;9.23;;;2.60;;
72649;SDS011;61467;50.674;4.618;2023-07-31T05:43:39;8.43;;;2.40;;
72649;SDS011;61467;50.674;4.618;2023-07-31T05:46:06;7.47;;;2.67;;
72649;SDS011;61467;50.674;4.618;2023-07-31T05:48:34;9.35;;;2.70;;
72649;SDS011;61467;50.674;4.618;2023-07-31T05:51:01;7.53;;;2.07;;
72649;SDS011;61467;50.674;4.618;2023-07-31T05:53:28;10.05;;;2.80;;
72649;SDS011;61467;50.674;4.618;2023-07-31T05:55:55;12.25;;;2.80;;
72649;SDS011;61467;50.674;4.618;2023-07-31T05:58:22;7.95;;;2.55;;
72649;SDS011;61467;50.674;4.618;2023-07-31T06:00:50;10.00;;;3.40;;
72649;SDS011;61467;50.674;4.618;2023-07-31T06:03:17;8.30;;;2.77;;
72649;SDS011;61467;50.674;4.618;2023-07-31T06:05:46;9.55;;;2.67;;
72649;SDS011;61467;50.674;4.618;2023-07-31T06:08:12;7.25;;;2.10;;
72649;SDS011;61467;50.674;4.618;2023-07-31T06:10:39;9.85;;;2.70;;
72649;SDS011;61467;50.674;4.618;2023-07-31T06:13:06;7.93;;;2.70;;
72649;SDS011;61467;50.674;4.618;2023-07-31T06:15:33;7.67;;;2.20;;
72649;SDS011;61467;50.674;4.618;2023-07-31T06:18:01;7.38;;;2.55;;
72649;SDS011;61467;50.674;4.618;2023-07-31T06:20:29;8.88;;;2.53;;
72649;SDS011;61467;50.674;4.618;2023-07-31T06:22:56;12.13;;;2.92;;
72649;SDS011;61467;50.674;4.618;2023-07-31T06:25:23;7.47;;;2.60;;
72649;SDS011;61467;50.674;4.618;2023-07-31T06:27:50;8.87;;;2.57;;
72649;SDS011;61467;50.674;4.618;2023-07-31T06:30:17;8.73;;;2.58;;
72649;SDS011;61467;50.674;4.618;2023-07-31T06:32:44;7.50;;;2.78;;
72649;SDS011;61467;50.674;4.618;2023-07-31T06:35:12;6.68;;;2.30;;
72649;SDS011;61467;50.674;4.618;2023-07-31T06:37:39;9.00;;;3.05;;
72649;SDS011;61467;50.674;4.618;2023-07-31T06:40:08;7.97;;;2.07;;
72649;SDS011;61467;50.674;4.618;2023-07-31T06:42:36;8.13;;;2.30;;
72649;SDS011;61467;50.674;4.618;2023-07-31T06:45:03;10.18;;;2.97;;
72649;SDS011;61467;50.674;4.618;2023-07-31T06:47:30;9.05;;;2.22;;
72649;SDS011;61467;50.674;4.618;2023-07-31T06:49:57;7.70;;;2.83;;
72649;SDS011;61467;50.674;4.618;2023-07-31T06:52:25;6.27;;;2.40;;
72649;SDS011;61467;50.674;4.618;2023-07-31T06:55:00;6.07;;;2.05;;
72649;SDS011;61467;50.674;4.618;2023-07-31T06:57:28;8.20;;;2.88;;
72649;SDS011;61467;50.674;4.618;2023-07-31T06:59:55;7.25;;;2.25;;
72649;SDS011;61467;50.674;4.618;2023-07-31T07:02:22;9.95;;;2.63;;
72649;SDS011;61467;50.674;4.618;2023-07-31T07:04:51;8.87;;;2.67;;
72649;SDS011;61467;50.674;4.618;2023-07-31T07:07:19;6.38;;;2.10;;
72649;SDS011;61467;50.674;4.618;2023-07-31T07:09:50;7.32;;;2.30;;
72649;SDS011;61467;50.674;4.618;2023-07-31T07:12:17;9.13;;;2.40;;
72649;SDS011;61467;50.674;4.618;2023-07-31T07:14:42;7.07;;;2.00;;
72649;SDS011;61467;50.674;4.618;2023-07-31T07:17:11;7.70;;;2.30;;
72649;SDS011;61467;50.674;4.618;2023-07-31T07:19:40;10.32;;;2.55;;
72649;SDS011;61467;50.674;4.618;2023-07-31T07:22:07;6.80;;;2.33;;
72649;SDS011;61467;50.674;4.618;2023-07-31T07:24:34;8.60;;;2.42;;
72649;SDS011;61467;50.674;4.618;2023-07-31T07:27:02;9.70;;;2.67;;
72649;SDS011;61467;50.674;4.618;2023-07-31T07:29:29;7.40;;;1.90;;
72649;SDS011;61467;50.674;4.618;2023-07-31T07:31:56;7.07;;;2.25;;
72649;SDS011;61467;50.674;4.618;2023-07-31T07:34:24;9.07;;;2.50;;
72649;SDS011;61467;50.674;4.618;2023-07-31T07:36:52;8.35;;;2.70;;
72649;SDS011;61467;50.674;4.618;2023-07-31T07:39:19;8.57;;;2.33;;
72649;SDS011;61467;50.674;4.618;2023-07-31T07:41:46;8.82;;;2.47;;
72649;SDS011;61467;50.674;4.618;2023-07-31T07:44:14;8.45;;;2.65;;
72649;SDS011;61467;50.674;4.618;2023-07-31T07:46:41;6.45;;;2.25;;
72649;SDS011;61467;50.674;4.618;2023-07-31T07:49:08;5.60;;;2.05;;
72649;SDS011;61467;50.674;4.618;2023-07-31T07:51:35;7.17;;;2.10;;
72649;SDS011;61467;50.674;4.618;2023-07-31T07:54:02;7.25;;;2.17;;
72649;SDS011;61467;50.674;4.618;2023-07-31T07:56:29;8.40;;;2.60;;
72649;SDS011;61467;50.674;4.618;2023-07-31T07:58:57;7.30;;;2.65;;
72649;SDS011;61467;50.674;4.618;2023-07-31T08:01:25;8.02;;;2.58;;
72649;SDS011;61467;50.674;4.618;2023-07-31T08:03:52;7.77;;;2.17;;
72649;SDS011;61467;50.674;4.618;2023-07-31T08:06:19;7.60;;;2.30;;
72649;SDS011;61467;50.674;4.618;2023-07-31T08:08:46;6.43;;;2.22;;
72649;SDS011;61467;50.674;4.618;2023-07-31T08:11:13;7.13;;;2.35;;
72649;SDS011;61467;50.674;4.618;2023-07-31T08:13:40;9.00;;;2.65;;
72649;SDS011;61467;50.674;4.618;2023-07-31T08:16:06;6.57;;;2.40;;
72649;SDS011;61467;50.674;4.618;2023-07-31T08:18:35;8.90;;;2.60;;
72649;SDS011;61467;50.674;4.618;2023-07-31T08:21:02;7.93;;;2.40;;
72649;SDS011;61467;50.674;4.618;2023-07-31T08:23:29;8.45;;;2.72;;
72649;SDS011;61467;50.674;4.618;2023-07-31T08:25:56;9.50;;;2.10;;
72649;SDS011;61467;50.674;4.618;2023-07-31T08:28:22;6.80;;;2.07;;
72649;SDS011;61467;50.674;4.618;2023-07-31T08:30:49;6.78;;;2.35;;
72649;SDS011;61467;50.674;4.618;2023-07-31T08:33:16;6.80;;;2.00;;
72649;SDS011;61467;50.674;4.618;2023-07-31T08:35:44;7.75;;;2.40;;
72649;SDS011;61467;50.674;4.618;2023-07-31T08:38:11;6.13;;;1.95;;
72649;SDS011;61467;50.674;4.618;2023-07-31T08:40:38;5.87;;;1.73;;
72649;SDS011;61467;50.674;4.618;2023-07-31T08:43:06;7.03;;;1.80;;
72649;SDS011;61467;50.674;4.618;2023-07-31T08:45:33;6.50;;;1.80;;
72649;SDS011;61467;50.674;4.618;2023-07-31T08:48:01;7.95;;;2.10;;
72649;SDS011;61467;50.674;4.618;2023-07-31T08:50:28;5.97;;;1.92;;
72649;SDS011;61467;50.674;4.618;2023-07-31T08:52:56;6.57;;;2.20;;
72649;SDS011;61467;50.674;4.618;2023-07-31T08:55:23;7.72;;;2.20;;
72649;SDS011;61467;50.674;4.618;2023-07-31T08:57:51;6.53;;;2.20;;
72649;SDS011;61467;50.674;4.618;2023-07-31T09:00:18;8.52;;;2.20;;
72649;SDS011;61467;50.674;4.618;2023-07-31T09:02:52;5.43;;;2.20;;
72649;SDS011;61467;50.674;4.618;2023-07-31T09:05:22;6.37;;;2.13;;
72649;SDS011;61467;50.674;4.618;2023-07-31T09:07:51;6.32;;;1.80;;
72649;SDS011;61467;50.674;4.618;2023-07-31T09:10:20;7.50;;;2.10;;
72649;SDS011;61467;50.674;4.618;2023-07-31T09:12:46;7.22;;;1.88;;
72649;SDS011;61467;50.674;4.618;2023-07-31T09:15:16;7.93;;;1.98;;
72649;SDS011;61467;50.674;4.618;2023-07-31T09:17:43;8.20;;;1.80;;
72649;SDS011;61467;50.674;4.618;2023-07-31T09:20:13;8.15;;;2.05;;
72649;SDS011;61467;50.674;4.618;2023-07-31T09:22:43;7.75;;;2.00;;
72649;SDS011;61467;50.674;4.618;2023-07-31T09:25:14;7.93;;;2.17;;
72649;SDS011;61467;50.674;4.618;2023-07-31T09:27:46;8.30;;;2.22;;
72649;SDS011;61467;50.674;4.618;2023-07-31T09:30:19;7.20;;;2.70;;
72649;SDS011;61467;50.674;4.618;2023-07-31T09:32:48;8.57;;;2.80;;
72649;SDS011;61467;50.674;4.618;2023-07-31T09:35:19;8.43;;;2.60;;
72649;SDS011;61467;50.674;4.618;2023-07-31T09:37:50;8.95;;;3.08;;
72649;SDS011;61467;50.674;4.618;2023-07-31T09:40:24;7.70;;;2.75;;
72649;SDS011;61467;50.674;4.618;2023-07-31T09:42:54;8.90;;;2.30;;
72649;SDS011;61467;50.674;4.618;2023-07-31T09:45:23;7.35;;;2.50;;
72649;SDS011;61467;50.674;4.618;2023-07-31T09:47:50;6.70;;;2.40;;
72649;SDS011;61467;50.674;4.618;2023-07-31T09:50:22;8.82;;;2.83;;
72649;SDS011;61467;50.674;4.618;2023-07-31T09:52:50;6.93;;;2.30;;
72649;SDS011;61467;50.674;4.618;2023-07-31T09:55:17;10.40;;;3.50;;
72649;SDS011;61467;50.674;4.618;2023-07-31T09:57:45;8.43;;;2.67;;
72649;SDS011;61467;50.674;4.618;2023-07-31T10:00:18;12.38;;;3.55;;
72649;SDS011;61467;50.674;4.618;2023-07-31T10:02:47;8.73;;;3.03;;
72649;SDS011;61467;50.674;4.618;2023-07-31T10:05:16;7.72;;;2.97;;
72649;SDS011;61467;50.674;4.618;2023-07-31T10:07:45;10.70;;;3.37;;
72649;SDS011;61467;50.674;4.618;2023-07-31T10:10:19;10.07;;;2.88;;
72649;SDS011;61467;50.674;4.618;2023-07-31T10:12:47;8.02;;;2.72;;
72649;SDS011;61467;50.674;4.618;2023-07-31T10:15:16;8.52;;;3.05;;
72649;SDS011;61467;50.674;4.618;2023-07-31T10:17:44;7.95;;;2.78;;
72649;SDS011;61467;50.674;4.618;2023-07-31T10:20:14;10.60;;;2.63;;
72649;SDS011;61467;50.674;4.618;2023-07-31T10:22:43;8.52;;;2.75;;
72649;SDS011;61467;50.674;4.618;2023-07-31T10:25:12;9.95;;;3.03;;
72649;SDS011;61467;50.674;4.618;2023-07-31T10:27:40;8.18;;;2.85;;
72649;SDS011;61467;50.674;4.618;2023-07-31T10:30:08;10.95;;;3.13;;
72649;SDS011;61467;50.674;4.618;2023-07-31T10:32:40;9.63;;;3.30;;
72649;SDS011;61467;50.674;4.618;2023-07-31T10:35:08;10.82;;;3.35;;
72649;SDS011;61467;50.674;4.618;2023-07-31T10:37:36;9.35;;;3.25;;
72649;SDS011;61467;50.674;4.618;2023-07-31T10:40:05;9.40;;;3.17;;
72649;SDS011;61467;50.674;4.618;2023-07-31T10:42:33;8.75;;;3.25;;
72649;SDS011;61467;50.674;4.618;2023-07-31T10:45:02;10.10;;;3.60;;
72649;SDS011;61467;50.674;4.618;2023-07-31T10:47:31;11.02;;;3.20;;
72649;SDS011;61467;50.674;4.618;2023-07-31T10:50:19;10.05;;;3.30;;
72649;SDS011;61467;50.674;4.618;2023-07-31T10:52:47;11.43;;;3.05;;
72649;SDS011;61467;50.674;4.618;2023-07-31T10:55:24;8.35;;;2.78;;
72649;SDS011;61467;50.674;4.618;2023-07-31T10:57:53;9.33;;;3.50;;
72649;SDS011;61467;50.674;4.618;2023-07-31T11:00:21;10.90;;;3.47;;
72649;SDS011;61467;50.674;4.618;2023-07-31T11:03:01;11.48;;;2.80;;
72649;SDS011;61467;50.674;4.618;2023-07-31T11:05:43;8.85;;;2.90;;
72649;SDS011;61467;50.674;4.618;2023-07-31T11:08:12;7.88;;;2.97;;
72649;SDS011;61467;50.674;4.618;2023-07-31T11:10:40;9.70;;;2.87;;
72649;SDS011;61467;50.674;4.618;2023-07-31T11:13:07;10.10;;;3.00;;
72649;SDS011;61467;50.674;4.618;2023-07-31T11:15:34;10.40;;;3.35;;
72649;SDS011;61467;50.674;4.618;2023-07-31T11:18:00;10.40;;;2.75;;
72649;SDS011;61467;50.674;4.618;2023-07-31T11:20:30;10.90;;;3.05;;
72649;SDS011;61467;50.674;4.618;2023-07-31T11:22:59;12.67;;;2.93;;
72649;SDS011;61467;50.674;4.618;2023-07-31T11:25:28;10.60;;;3.13;;
72649;SDS011;61467;50.674;4.618;2023-07-31T11:27:56;10.73;;;2.97;;
72649;SDS011;61467;50.674;4.618;2023-07-31T11:30:23;11.73;;;3.45;;
72649;SDS011;61467;50.674;4.618;2023-07-31T11:32:50;10.95;;;4.05;;
72649;SDS011;61467;50.674;4.618;2023-07-31T11:35:18;14.03;;;5.00;;
72649;SDS011;61467;50.674;4.618;2023-07-31T11:37:45;13.95;;;3.80;;
72649;SDS011;61467;50.674;4.618;2023-07-31T11:40:13;10.82;;;3.33;;
72649;SDS011;61467;50.674;4.618;2023-07-31T11:42:41;10.30;;;2.72;;
72649;SDS011;61467;50.674;4.618;2023-07-31T11:45:08;12.25;;;2.92;;
72649;SDS011;61467;50.674;4.618;2023-07-31T11:47:36;10.30;;;2.80;;
72649;SDS011;61467;50.674;4.618;2023-07-31T11:50:11;11.32;;;3.22;;
72649;SDS011;61467;50.674;4.618;2023-07-31T11:52:40;10.45;;;3.90;;
72649;SDS011;61467;50.674;4.618;2023-07-31T11:55:11;10.18;;;3.38;;
72649;SDS011;61467;50.674;4.618;2023-07-31T11:57:41;9.05;;;3.15;;
72649;SDS011;61467;50.674;4.618;2023-07-31T12:00:11;11.00;;;3.20;;
72649;SDS011;61467;50.674;4.618;2023-07-31T12:02:40;7.53;;;3.28;;
72649;SDS011;61467;50.674;4.618;2023-07-31T12:05:10;10.30;;;3.80;;
72649;SDS011;61467;50.674;4.618;2023-07-31T12:07:47;9.20;;;2.92;;
72649;SDS011;61467;50.674;4.618;2023-07-31T12:10:22;10.35;;;3.40;;
72649;SDS011;61467;50.674;4.618;2023-07-31T12:12:57;9.03;;;2.83;;
72649;SDS011;61467;50.674;4.618;2023-07-31T12:15:29;10.23;;;3.15;;
72649;SDS011;61467;50.674;4.618;2023-07-31T12:17:59;10.27;;;2.80;;
72649;SDS011;61467;50.674;4.618;2023-07-31T12:20:26;9.65;;;3.15;;
72649;SDS011;61467;50.674;4.618;2023-07-31T12:22:55;9.77;;;3.85;;
72649;SDS011;61467;50.674;4.618;2023-07-31T12:25:28;8.97;;;3.10;;
72649;SDS011;61467;50.674;4.618;2023-07-31T12:27:57;8.90;;;3.50;;
72649;SDS011;61467;50.674;4.618;2023-07-31T12:30:27;9.30;;;3.10;;
72649;SDS011;61467;50.674;4.618;2023-07-31T12:32:55;11.05;;;3.70;;
72649;SDS011;61467;50.674;4.618;2023-07-31T12:35:30;11.27;;;3.22;;
72649;SDS011;61467;50.674;4.618;2023-07-31T12:38:01;9.23;;;3.40;;
72649;SDS011;61467;50.674;4.618;2023-07-31T12:40:28;9.70;;;3.30;;
72649;SDS011;61467;50.674;4.618;2023-07-31T12:42:56;12.05;;;3.92;;
72649;SDS011;61467;50.674;4.618;2023-07-31T12:45:24;12.43;;;4.22;;
72649;SDS011;61467;50.674;4.618;2023-07-31T12:47:54;9.95;;;3.65;;
72649;SDS011;61467;50.674;4.618;2023-07-31T12:50:22;12.27;;;3.77;;
72649;SDS011;61467;50.674;4.618;2023-07-31T12:52:49;10.48;;;3.97;;
72649;SDS011;61467;50.674;4.618;2023-07-31T12:55:15;13.82;;;4.07;;
72649;SDS011;61467;50.674;4.618;2023-07-31T12:57:43;11.32;;;4.10;;
72649;SDS011;61467;50.674;4.618;2023-07-31T13:00:12;11.23;;;4.10;;
72649;SDS011;61467;50.674;4.618;2023-07-31T13:02:40;13.40;;;4.17;;
72649;SDS011;61467;50.674;4.618;2023-07-31T13:05:09;9.80;;;3.90;;
72649;SDS011;61467;50.674;4.618;2023-07-31T13:07:36;9.77;;;3.70;;
72649;SDS011;61467;50.674;4.618;2023-07-31T13:10:04;10.20;;;3.70;;
72649;SDS011;61467;50.674;4.618;2023-07-31T13:12:31;10.25;;;3.08;;
72649;SDS011;61467;50.674;4.618;2023-07-31T13:14:58;10.03;;;3.40;;
72649;SDS011;61467;50.674;4.618;2023-07-31T13:17:26;9.27;;;3.08;;
72649;SDS011;61467;50.674;4.618;2023-07-31T13:19:53;12.02;;;3.30;;
72649;SDS011;61467;50.674;4.618;2023-07-31T13:22:20;13.80;;;4.22;;
72649;SDS011;61467;50.674;4.618;2023-07-31T13:24:47;10.40;;;3.28;;
72649;SDS011;61467;50.674;4.618;2023-07-31T13:27:14;11.20;;;3.50;;
72649;SDS011;61467;50.674;4.618;2023-07-31T13:29:43;8.93;;;3.45;;
72649;SDS011;61467;50.674;4.618;2023-07-31T13:32:10;8.88;;;2.92;;
72649;SDS011;61467;50.674;4.618;2023-07-31T13:34:39;7.53;;;2.58;;
72649;SDS011;61467;50.674;4.618;2023-07-31T13:37:06;10.02;;;2.65;;
72649;SDS011;61467;50.674;4.618;2023-07-31T13:39:33;9.50;;;2.10;;
72649;SDS011;61467;50.674;4.618;2023-07-31T13:42:01;5.85;;;2.30;;
72649;SDS011;61467;50.674;4.618;2023-07-31T13:44:31;7.53;;;2.40;;
72649;SDS011;61467;50.674;4.618;2023-07-31T13:46:59;7.60;;;2.28;;
72649;SDS011;61467;50.674;4.618;2023-07-31T13:49:26;7.25;;;2.22;;
72649;SDS011;61467;50.674;4.618;2023-07-31T13:51:56;7.30;;;2.00;;
72649;SDS011;61467;50.674;4.618;2023-07-31T13:54:23;8.38;;;2.13;;
72649;SDS011;61467;50.674;4.618;2023-07-31T13:56:53;7.72;;;2.45;;
72649;SDS011;61467;50.674;4.618;2023-07-31T13:59:20;10.70;;;2.47;;
72649;SDS011;61467;50.674;4.618;2023-07-31T14:01:47;8.52;;;2.38;;
72649;SDS011;61467;50.674;4.618;2023-07-31T14:04:14;7.20;;;2.60;;
72649;SDS011;61467;50.674;4.618;2023-07-31T14:06:40;7.80;;;2.45;;
72649;SDS011;61467;50.674;4.618;2023-07-31T14:09:09;7.32;;;1.98;;
72649;SDS011;61467;50.674;4.618;2023-07-31T14:11:36;9.43;;;2.20;;
72649;SDS011;61467;50.674;4.618;2023-07-31T14:14:04;6.88;;;2.30;;
72649;SDS011;61467;50.674;4.618;2023-07-31T14:16:31;8.40;;;2.60;;
72649;SDS011;61467;50.674;4.618;2023-07-31T14:18:59;6.05;;;2.00;;
72649;SDS011;61467;50.674;4.618;2023-07-31T14:21:26;5.70;;;2.00;;
72649;SDS011;61467;50.674;4.618;2023-07-31T14:23:53;7.50;;;2.47;;
72649;SDS011;61467;50.674;4.618;2023-07-31T14:26:21;6.88;;;2.13;;
72649;SDS011;61467;50.674;4.618;2023-07-31T14:28:48;8.17;;;2.33;;
72649;SDS011;61467;50.674;4.618;2023-07-31T14:31:15;7.72;;;2.00;;
72649;SDS011;61467;50.674;4.618;2023-07-31T14:33:42;6.15;;;1.90;;
72649;SDS011;61467;50.674;4.618;2023-07-31T14:36:10;8.07;;;2.53;;
72649;SDS011;61467;50.674;4.618;2023-07-31T14:38:37;5.50;;;1.65;;
72649;SDS011;61467;50.674;4.618;2023-07-31T14:41:03;6.10;;;1.60;;
72649;SDS011;61467;50.674;4.618;2023-07-31T14:43:32;8.45;;;2.33;;
72649;SDS011;61467;50.674;4.618;2023-07-31T14:45:58;6.50;;;2.25;;
72649;SDS011;61467;50.674;4.618;2023-07-31T14:48:25;7.03;;;1.92;;